createdAt,value
2023-09-09T00:00:11.622Z,12.66
2023-09-09T00:02:43.022Z,12.69
2023-09-09T00:05:11.881Z,12.85
2023-09-09T00:07:40.349Z,13.02
2023-09-09T00:10:09.988Z,13.10
2023-09-09T00:12:38.541Z,13.10
2023-09-09T00:15:10.107Z,13.18
2023-09-09T00:17:38.783Z,13.11
2023-09-09T00:20:10.885Z,12.99
2023-09-09T00:22:40.051Z,13.06
2023-09-09T00:25:09.502Z,13.16
2023-09-09T00:27:38.099Z,13.20
2023-09-09T00:30:09.612Z,13.27
2023-09-09T00:32:38.336Z,13.29
2023-09-09T00:35:07.392Z,13.27
2023-09-09T00:37:36.258Z,13.24
2023-09-09T00:40:06.854Z,13.17
2023-09-09T00:42:35.906Z,13.27
2023-09-09T00:45:04.609Z,13.26
2023-09-09T00:47:36.153Z,13.34
2023-09-09T00:50:07.303Z,13.25
2023-09-09T00:52:37.693Z,13.26
2023-09-09T00:55:06.818Z,13.42
2023-09-09T00:57:35.705Z,13.44
2023-09-09T01:00:10.590Z,13.42
2023-09-09T01:02:41.429Z,13.42
2023-09-09T01:05:11.700Z,13.51
2023-09-09T01:07:47.629Z,13.51
2023-09-09T01:10:19.281Z,13.56
2023-09-09T01:12:47.991Z,13.52
2023-09-09T01:15:16.600Z,13.60
2023-09-09T01:17:46.975Z,13.62
2023-09-09T01:20:17.241Z,13.38
2023-09-09T01:22:50.085Z,13.40
2023-09-09T01:25:17.972Z,13.31
2023-09-09T01:27:47.637Z,13.33
2023-09-09T01:30:17.093Z,13.50
2023-09-09T01:32:45.616Z,13.66
2023-09-09T01:35:14.262Z,13.48
2023-09-09T01:37:42.960Z,13.37
2023-09-09T01:40:14.288Z,13.32
2023-09-09T01:42:43.048Z,13.17
2023-09-09T01:45:13.539Z,13.09
2023-09-09T01:47:42.365Z,13.06
2023-09-09T01:50:11.678Z,13.15
2023-09-09T01:52:40.302Z,13.31
2023-09-09T01:55:09.416Z,13.30
2023-09-09T01:57:39.367Z,13.34
2023-09-09T02:00:09.519Z,13.49
2023-09-09T02:02:45.100Z,13.32
2023-09-09T02:05:13.792Z,13.40
2023-09-09T02:07:42.293Z,13.24
2023-09-09T02:10:13.844Z,13.22
2023-09-09T02:12:44.274Z,13.25
2023-09-09T02:15:14.686Z,13.46
2023-09-09T02:17:43.505Z,13.44
2023-09-09T02:20:12.429Z,13.33
2023-09-09T02:22:41.059Z,13.31
2023-09-09T02:25:10.415Z,13.31
2023-09-09T02:27:39.045Z,13.39
2023-09-09T02:30:10.194Z,13.54
2023-09-09T02:32:40.714Z,13.46
2023-09-09T02:35:11.933Z,13.75
2023-09-09T02:37:40.802Z,13.80
2023-09-09T02:40:10.845Z,13.79
2023-09-09T02:42:39.492Z,13.79
2023-09-09T02:45:10.981Z,13.61
2023-09-09T02:47:40.578Z,13.63
2023-09-09T02:50:10.376Z,13.59
2023-09-09T02:52:39.025Z,13.63
2023-09-09T02:55:08.538Z,13.67
2023-09-09T02:57:37.275Z,13.66
2023-09-09T03:00:09.306Z,13.58
2023-09-09T03:02:39.839Z,13.46
2023-09-09T03:05:09.338Z,13.43
2023-09-09T03:07:38.263Z,13.40
2023-09-09T03:10:08.406Z,13.40
2023-09-09T03:12:37.208Z,13.50
2023-09-09T03:15:07.102Z,13.53
2023-09-09T03:17:36.180Z,13.66
2023-09-09T03:20:10.442Z,13.75
2023-09-09T03:22:39.252Z,13.87
2023-09-09T03:25:09.846Z,13.64
2023-09-09T03:27:38.784Z,13.61
2023-09-09T03:30:10.731Z,13.61
2023-09-09T03:32:39.668Z,13.58
2023-09-09T03:35:11.623Z,13.76
2023-09-09T03:37:40.296Z,13.80
2023-09-09T03:40:09.893Z,13.86
2023-09-09T03:42:40.644Z,13.76
2023-09-09T03:45:11.726Z,13.71
2023-09-09T03:47:40.813Z,13.70
2023-09-09T03:50:11.704Z,13.81
2023-09-09T03:52:40.486Z,13.78
2023-09-09T03:55:09.700Z,13.84
2023-09-09T03:57:38.346Z,13.83
2023-09-09T04:00:10.616Z,13.89
2023-09-09T04:02:41.715Z,13.91
2023-09-09T04:05:15.233Z,14.01
2023-09-09T04:07:45.781Z,14.35
2023-09-09T04:10:17.366Z,14.37
2023-09-09T04:12:46.176Z,14.21
2023-09-09T04:15:14.936Z,14.04
2023-09-09T04:17:43.916Z,14.10
2023-09-09T04:20:14.347Z,13.97
2023-09-09T04:22:43.005Z,14.08
2023-09-09T04:25:11.633Z,14.05
2023-09-09T04:27:40.495Z,14.11
2023-09-09T04:30:10.468Z,14.16
2023-09-09T04:32:39.324Z,14.10
2023-09-09T04:35:08.756Z,14.23
2023-09-09T04:37:39.072Z,14.34
2023-09-09T04:40:10.670Z,14.59
2023-09-09T04:42:39.520Z,14.33
2023-09-09T04:45:10.074Z,14.39
2023-09-09T04:47:39.015Z,14.05
2023-09-09T04:50:08.618Z,14.14
2023-09-09T04:52:38.751Z,14.10
2023-09-09T04:55:07.752Z,14.09
2023-09-09T04:57:36.549Z,14.25
2023-09-09T05:00:08.409Z,14.25
2023-09-09T05:02:39.065Z,14.56
2023-09-09T05:05:09.615Z,14.50
2023-09-09T05:07:40.708Z,14.30
2023-09-09T05:10:10.916Z,14.47
2023-09-09T05:12:39.791Z,14.52
2023-09-09T05:15:11.653Z,14.44
2023-09-09T05:17:41.218Z,14.44
2023-09-09T05:20:11.070Z,14.59
2023-09-09T05:22:41.366Z,14.58
2023-09-09T05:25:10.584Z,14.44
2023-09-09T05:27:39.367Z,14.48
2023-09-09T05:30:09.366Z,14.48
2023-09-09T05:32:38.052Z,14.47
2023-09-09T05:35:07.524Z,14.47
2023-09-09T05:37:36.115Z,14.57
2023-09-09T05:40:07.203Z,14.60
2023-09-09T05:42:35.997Z,14.64
2023-09-09T05:45:05.832Z,14.67
2023-09-09T05:47:35.633Z,14.45
2023-09-09T05:50:06.999Z,14.52
2023-09-09T05:52:36.581Z,14.56
2023-09-09T05:55:09.766Z,14.74
2023-09-09T05:57:39.450Z,14.72
2023-09-09T06:00:10.626Z,14.61
2023-09-09T06:02:45.253Z,14.71
2023-09-09T06:05:15.373Z,14.93
2023-09-09T06:07:44.430Z,14.99
2023-09-09T06:10:14.794Z,14.94
2023-09-09T06:12:43.809Z,14.94
2023-09-09T06:15:12.775Z,14.84
2023-09-09T06:17:42.994Z,14.83
2023-09-09T06:20:15.503Z,14.76
2023-09-09T06:22:44.792Z,14.89
2023-09-09T06:25:15.066Z,15.06
2023-09-09T06:27:44.999Z,15.11
2023-09-09T06:30:14.123Z,15.12
2023-09-09T06:32:42.995Z,15.07
2023-09-09T06:35:11.825Z,15.12
2023-09-09T06:37:40.405Z,15.09
2023-09-09T06:40:10.028Z,15.10
2023-09-09T06:42:40.068Z,15.11
2023-09-09T06:45:10.045Z,15.14
2023-09-09T06:47:38.773Z,15.11
2023-09-09T06:50:08.435Z,15.19
2023-09-09T06:52:39.722Z,15.29
2023-09-09T06:55:09.292Z,15.40
2023-09-09T06:57:37.824Z,15.44
2023-09-09T07:00:10.857Z,15.75
2023-09-09T07:02:40.741Z,15.69
2023-09-09T07:05:09.937Z,15.65
2023-09-09T07:07:42.887Z,15.92
2023-09-09T07:10:12.515Z,15.79
2023-09-09T07:12:43.112Z,15.86
2023-09-09T07:15:13.388Z,15.91
2023-09-09T07:17:44.924Z,15.89
2023-09-09T07:20:13.851Z,15.88
2023-09-09T07:22:42.391Z,15.94
2023-09-09T07:25:11.913Z,16.00
2023-09-09T07:27:40.496Z,16.00
2023-09-09T07:30:11.833Z,16.15
2023-09-09T07:32:42.036Z,16.13
2023-09-09T07:35:11.172Z,16.23
2023-09-09T07:37:40.012Z,16.25
2023-09-09T07:40:10.127Z,16.34
2023-09-09T07:42:38.721Z,16.38
2023-09-09T07:45:08.460Z,16.50
2023-09-09T07:47:37.255Z,16.44
2023-09-09T07:50:09.312Z,16.64
2023-09-09T07:52:38.107Z,16.67
2023-09-09T07:55:07.441Z,16.75
2023-09-09T07:57:36.528Z,16.72
2023-09-09T08:00:09.170Z,16.80
2023-09-09T08:02:40.696Z,16.78
2023-09-09T08:05:11.375Z,16.87
2023-09-09T08:07:40.080Z,16.94
2023-09-09T08:10:11.580Z,16.85
2023-09-09T08:12:40.263Z,16.88
2023-09-09T08:15:11.383Z,16.98
2023-09-09T08:17:40.521Z,16.92
2023-09-09T08:20:11.514Z,16.90
2023-09-09T08:22:40.244Z,16.99
2023-09-09T08:25:09.463Z,16.90
2023-09-09T08:27:38.225Z,17.02
2023-09-09T08:30:07.730Z,16.75
2023-09-09T08:32:36.499Z,16.70
2023-09-09T08:35:05.410Z,16.68
2023-09-09T08:37:35.665Z,16.74
2023-09-09T08:40:05.341Z,16.81
2023-09-09T08:42:46.337Z,16.88
2023-09-09T08:45:22.140Z,16.93
2023-09-09T08:47:52.846Z,16.95
2023-09-09T08:50:27.571Z,17.01
2023-09-09T08:53:01.465Z,17.06
2023-09-09T08:55:30.438Z,16.85
2023-09-09T08:57:59.103Z,16.83
2023-09-09T09:00:34.779Z,16.96
2023-09-09T09:03:03.988Z,17.09
2023-09-09T09:05:34.048Z,16.97
2023-09-09T09:08:04.861Z,16.89
2023-09-09T09:10:33.793Z,17.04
2023-09-09T09:13:05.014Z,17.18
2023-09-09T09:15:37.447Z,17.23
2023-09-09T09:18:06.752Z,17.33
2023-09-09T09:20:36.102Z,17.25
2023-09-09T09:23:07.159Z,17.15
2023-09-09T09:25:39.177Z,17.41
2023-09-09T09:28:08.195Z,17.39
2023-09-09T09:30:37.569Z,17.40
2023-09-09T09:33:06.878Z,17.59
2023-09-09T09:35:38.395Z,17.74
2023-09-09T09:38:13.208Z,17.91
2023-09-09T09:40:42.073Z,17.87
2023-09-09T09:43:20.027Z,17.91
2023-09-09T09:45:49.087Z,17.78
2023-09-09T09:48:28.279Z,17.67
2023-09-09T09:50:57.074Z,17.82
2023-09-09T09:53:27.891Z,17.90
2023-09-09T09:55:58.352Z,18.03
2023-09-09T09:58:31.081Z,18.19
2023-09-09T10:01:03.951Z,18.22
2023-09-09T10:03:42.785Z,18.16
2023-09-09T10:06:14.657Z,18.13
2023-09-09T10:08:48.876Z,18.19
2023-09-09T10:11:22.485Z,18.20
2023-09-09T10:13:58.966Z,18.20
2023-09-09T10:16:29.768Z,18.19
2023-09-09T10:18:59.908Z,18.11
2023-09-09T10:21:41.423Z,18.06
2023-09-09T10:24:13.601Z,18.08
2023-09-09T10:26:42.805Z,17.99
2023-09-09T10:29:11.947Z,18.08
2023-09-09T10:31:43.783Z,18.00
2023-09-09T10:34:14.635Z,18.14
2023-09-09T10:36:59.538Z,18.02
2023-09-09T10:39:33.882Z,17.98
2023-09-09T10:42:03.124Z,18.13
2023-09-09T10:44:31.696Z,18.13
2023-09-09T10:47:00.581Z,18.18
2023-09-09T10:49:32.285Z,18.26
2023-09-09T10:52:04.695Z,18.25
2023-09-09T10:54:36.442Z,18.13
2023-09-09T10:57:05.569Z,18.17
2023-09-09T10:59:34.555Z,18.38
2023-09-09T11:02:21.172Z,18.46
2023-09-09T11:05:00.525Z,18.29
2023-09-09T11:07:41.322Z,18.19
2023-09-09T11:10:12.045Z,18.31
2023-09-09T11:12:54.308Z,18.43
2023-09-09T11:15:27.008Z,18.52
2023-09-09T11:17:56.099Z,18.87
2023-09-09T11:20:26.453Z,18.81
2023-09-09T11:22:55.204Z,18.75
2023-09-09T11:25:25.613Z,18.77
2023-09-09T11:27:55.725Z,18.89
2023-09-09T11:30:26.796Z,18.59
2023-09-09T11:32:55.659Z,18.43
2023-09-09T11:35:25.453Z,18.64
2023-09-09T11:38:04.191Z,18.65
2023-09-09T11:40:34.625Z,18.61
2023-09-09T11:43:03.924Z,18.74
2023-09-09T11:45:36.355Z,18.50
2023-09-09T11:48:06.048Z,18.19
2023-09-09T11:50:41.669Z,18.21
2023-09-09T11:53:11.031Z,18.23
2023-09-09T11:55:41.431Z,18.25
2023-09-09T11:58:10.081Z,18.30
2023-09-09T12:00:38.736Z,18.25
2023-09-09T12:03:07.256Z,18.63
2023-09-09T12:05:36.332Z,18.58
2023-09-09T12:08:05.725Z,18.47
2023-09-09T12:10:37.932Z,18.53
2023-09-09T12:13:08.560Z,18.72
2023-09-09T12:15:37.174Z,18.61
2023-09-09T12:18:12.679Z,18.63
2023-09-09T12:21:02.714Z,18.68
2023-09-09T12:23:32.394Z,18.82
2023-09-09T12:26:10.186Z,18.73
2023-09-09T12:28:40.437Z,18.91
2023-09-09T12:31:09.367Z,18.95
2023-09-09T12:33:42.504Z,18.98
2023-09-09T12:36:18.987Z,19.06
2023-09-09T12:38:50.264Z,18.99
2023-09-09T12:41:20.918Z,19.19
2023-09-09T12:43:53.164Z,19.12
2023-09-09T12:46:27.303Z,18.96
2023-09-09T12:48:58.283Z,18.99
2023-09-09T12:51:30.304Z,19.28
2023-09-09T12:53:59.687Z,18.99
2023-09-09T12:56:29.787Z,18.93
2023-09-09T12:58:59.730Z,18.94
2023-09-09T13:01:28.243Z,18.89
2023-09-09T13:03:57.103Z,19.06
2023-09-09T13:06:25.677Z,18.95
2023-09-09T13:08:54.221Z,19.00
2023-09-09T13:11:23.416Z,18.82
2023-09-09T13:13:57.031Z,18.86
2023-09-09T13:16:37.578Z,18.74
2023-09-09T13:19:05.944Z,18.78
2023-09-09T13:21:34.447Z,18.71
2023-09-09T13:24:02.946Z,18.57
2023-09-09T13:26:31.601Z,18.63
2023-09-09T13:29:00.210Z,18.62
2023-09-09T13:31:28.915Z,18.79
2023-09-09T13:33:58.823Z,18.88
2023-09-09T13:36:28.132Z,18.90
2023-09-09T13:38:56.831Z,18.95
2023-09-09T13:41:30.164Z,19.00
2023-09-09T13:43:58.844Z,18.94
2023-09-09T13:46:27.514Z,18.97
2023-09-09T13:48:56.065Z,18.94
2023-09-09T13:51:28.543Z,18.95
2023-09-09T13:53:58.764Z,18.94
2023-09-09T13:56:27.286Z,18.81
2023-09-09T13:58:57.302Z,18.71
2023-09-09T14:01:26.424Z,18.60
2023-09-09T14:03:56.017Z,18.61
2023-09-09T14:06:27.448Z,18.56
2023-09-09T14:08:56.043Z,18.70
2023-09-09T14:11:24.707Z,18.93
2023-09-09T14:13:53.414Z,18.75
2023-09-09T14:16:21.929Z,18.68
2023-09-09T14:18:50.596Z,18.78
2023-09-09T14:21:20.500Z,18.76
2023-09-09T14:23:50.624Z,18.70
2023-09-09T14:26:20.489Z,18.82
2023-09-09T14:28:49.046Z,18.82
2023-09-09T14:31:17.641Z,18.73
2023-09-09T14:33:46.079Z,18.69
2023-09-09T14:36:15.448Z,18.70
2023-09-09T14:38:43.910Z,18.72
2023-09-09T14:41:14.164Z,18.86
2023-09-09T14:43:42.718Z,18.83
2023-09-09T14:46:11.272Z,18.82
2023-09-09T14:48:57.254Z,18.70
2023-09-09T14:51:26.188Z,18.70
2023-09-09T14:53:54.894Z,18.87
2023-09-09T14:56:24.873Z,18.79
2023-09-09T14:58:53.308Z,18.59
2023-09-09T15:01:21.933Z,18.46
2023-09-09T15:03:50.588Z,18.47
2023-09-09T15:06:19.166Z,18.36
2023-09-09T15:08:47.642Z,18.39
2023-09-09T15:11:16.268Z,18.34
2023-09-09T15:13:48.450Z,18.22
2023-09-09T15:16:21.639Z,18.11
2023-09-09T15:18:50.658Z,18.02
2023-09-09T15:21:19.340Z,17.91
2023-09-09T15:23:47.980Z,17.88
2023-09-09T15:26:16.948Z,18.36
2023-09-09T15:28:46.986Z,18.45
2023-09-09T15:31:15.641Z,18.37
2023-09-09T15:33:44.277Z,18.30
2023-09-09T15:36:12.732Z,18.29
2023-09-09T15:38:42.658Z,18.35
2023-09-09T15:41:11.301Z,18.33
2023-09-09T15:43:40.045Z,18.10
2023-09-09T15:46:09.945Z,18.12
2023-09-09T15:48:38.821Z,18.07
2023-09-09T15:51:07.992Z,18.03
2023-09-09T15:53:36.681Z,18.00
2023-09-09T15:56:12.666Z,17.91
2023-09-09T15:58:42.252Z,18.04
2023-09-09T16:01:12.596Z,18.03
2023-09-09T16:03:43.323Z,17.90
2023-09-09T16:06:11.825Z,17.84
2023-09-09T16:08:42.239Z,17.77
2023-09-09T16:11:10.849Z,17.78
2023-09-09T16:13:39.775Z,17.84
2023-09-09T16:16:09.873Z,17.67
2023-09-09T16:18:42.379Z,17.59
2023-09-09T16:21:11.456Z,17.54
2023-09-09T16:23:40.032Z,17.41
2023-09-09T16:26:08.827Z,17.08
2023-09-09T16:28:37.558Z,16.91
2023-09-09T16:31:06.982Z,16.96
2023-09-09T16:33:35.745Z,16.80
2023-09-09T16:36:06.944Z,16.61
2023-09-09T16:38:36.841Z,16.63
2023-09-09T16:41:05.736Z,16.65
2023-09-09T16:43:36.120Z,16.69
2023-09-09T16:46:04.965Z,16.60
2023-09-09T16:48:33.632Z,16.52
2023-09-09T16:51:02.276Z,16.53
2023-09-09T16:53:32.336Z,16.44
2023-09-09T16:56:03.284Z,16.29
2023-09-09T16:58:32.344Z,16.18
2023-09-09T17:01:01.111Z,16.02
2023-09-09T17:03:30.000Z,15.94
2023-09-09T17:06:00.354Z,16.03
2023-09-09T17:08:29.668Z,15.88
2023-09-09T17:10:59.951Z,15.77
2023-09-09T17:13:28.744Z,15.67
2023-09-09T17:15:59.469Z,15.62
2023-09-09T17:18:27.854Z,15.54
2023-09-09T17:20:59.117Z,15.41
2023-09-09T17:23:29.354Z,15.35
2023-09-09T17:26:02.595Z,15.34
2023-09-09T17:28:31.526Z,15.25
2023-09-09T17:31:00.209Z,15.15
2023-09-09T17:33:28.938Z,15.04
2023-09-09T17:35:58.614Z,14.92
2023-09-09T17:38:27.355Z,14.91
2023-09-09T17:40:56.033Z,14.91
2023-09-09T17:43:26.073Z,14.90
2023-09-09T17:45:54.734Z,14.97
2023-09-09T17:48:24.550Z,15.04
2023-09-09T17:50:53.193Z,14.96
2023-09-09T17:53:21.874Z,14.80
2023-09-09T17:55:50.366Z,14.63
2023-09-09T17:58:19.391Z,14.52
2023-09-09T18:00:49.755Z,14.44
2023-09-09T18:03:18.615Z,14.33
2023-09-09T18:05:47.372Z,14.24
2023-09-09T18:08:16.046Z,14.19
2023-09-09T18:10:45.502Z,14.21
2023-09-09T18:13:14.290Z,14.42
2023-09-09T18:15:43.651Z,14.55
2023-09-09T18:18:13.994Z,14.34
2023-09-09T18:20:42.789Z,14.17
2023-09-09T18:23:11.722Z,13.98
2023-09-09T18:25:40.606Z,13.85
2023-09-09T18:28:10.586Z,13.86
2023-09-09T18:30:45.685Z,13.70
2023-09-09T18:33:16.255Z,13.65
2023-09-09T18:35:45.087Z,13.52
2023-09-09T18:38:13.623Z,13.47
2023-09-09T18:40:42.305Z,13.38
2023-09-09T18:43:11.011Z,13.35
2023-09-09T18:45:39.792Z,13.33
2023-09-09T18:48:08.932Z,13.29
2023-09-09T18:50:39.133Z,13.30
2023-09-09T18:53:08.577Z,13.28
2023-09-09T18:55:37.870Z,13.28
2023-09-09T18:58:06.534Z,13.26
2023-09-09T19:00:35.161Z,13.29
2023-09-09T19:03:04.499Z,13.27
2023-09-09T19:05:34.280Z,13.21
2023-09-09T19:08:04.614Z,13.21
2023-09-09T19:10:33.634Z,13.21
2023-09-09T19:13:02.936Z,13.25
2023-09-09T19:15:31.696Z,13.22
2023-09-09T19:18:00.373Z,13.22
2023-09-09T19:20:29.080Z,13.22
2023-09-09T19:22:57.786Z,13.13
2023-09-09T19:25:28.476Z,13.11
2023-09-09T19:27:57.132Z,13.06
2023-09-09T19:30:27.259Z,12.98
2023-09-09T19:32:56.056Z,12.94
2023-09-09T19:35:25.094Z,12.81
2023-09-09T19:37:55.528Z,12.95
2023-09-09T19:40:24.589Z,12.82
2023-09-09T19:42:54.872Z,12.84
2023-09-09T19:45:23.458Z,12.69
2023-09-09T19:47:52.108Z,12.63
2023-09-09T19:50:21.176Z,12.62
2023-09-09T19:52:49.801Z,12.63
2023-09-09T19:55:18.686Z,12.53
2023-09-09T19:57:47.116Z,12.50
2023-09-09T20:00:18.374Z,12.43
2023-09-09T20:05:33.491Z,12.42
2023-09-09T20:08:04.447Z,12.39
2023-09-09T20:10:33.083Z,12.32
2023-09-09T20:13:02.916Z,12.44
2023-09-09T20:15:33.065Z,12.41
2023-09-09T20:18:01.570Z,12.37
2023-09-09T20:20:30.095Z,12.32
2023-09-09T20:22:58.627Z,12.30
2023-09-09T20:25:27.319Z,12.32
2023-09-09T20:27:55.794Z,12.20
2023-09-09T20:30:26.466Z,12.21
2023-09-09T20:32:56.534Z,12.20
2023-09-09T20:35:34.059Z,12.14
2023-09-09T20:38:05.661Z,12.08
2023-09-09T20:40:34.983Z,12.15
2023-09-09T20:43:03.937Z,12.14
2023-09-09T20:45:32.632Z,12.24
2023-09-09T20:48:02.521Z,12.23
2023-09-09T20:50:34.501Z,12.33
2023-09-09T20:53:03.615Z,12.37
2023-09-09T20:55:34.434Z,12.23
2023-09-09T20:58:02.856Z,12.24
2023-09-09T21:00:31.492Z,12.17
2023-09-09T21:03:01.900Z,12.15
2023-09-09T21:05:30.683Z,12.18
2023-09-09T21:07:59.171Z,12.06
2023-09-09T21:10:28.159Z,11.99
2023-09-09T21:12:56.782Z,11.91
2023-09-09T21:15:25.613Z,11.88
2023-09-09T21:17:54.230Z,11.87
2023-09-09T21:20:24.443Z,11.91
2023-09-09T21:22:53.033Z,11.94
2023-09-09T21:25:29.542Z,12.01
2023-09-09T21:27:58.543Z,11.83
2023-09-09T21:30:28.693Z,11.83
2023-09-09T21:32:58.607Z,12.06
2023-09-09T21:35:28.599Z,11.99
2023-09-09T21:37:57.269Z,11.93
2023-09-09T21:40:25.911Z,11.86
2023-09-09T21:42:54.489Z,11.81
2023-09-09T21:45:24.552Z,11.74
2023-09-09T21:47:53.553Z,11.75
2023-09-09T21:50:22.256Z,11.65
2023-09-09T21:52:53.098Z,11.69
2023-09-09T21:55:21.769Z,11.73
2023-09-09T21:57:50.278Z,11.78
2023-09-09T22:00:21.528Z,11.70
2023-09-09T22:02:51.939Z,11.60
2023-09-09T22:05:21.178Z,11.72
2023-09-09T22:07:49.850Z,11.69
2023-09-09T22:10:20.026Z,11.66
2023-09-09T22:12:48.459Z,11.73
2023-09-09T22:15:17.628Z,11.74
2023-09-09T22:17:46.219Z,11.76
2023-09-09T22:20:16.983Z,11.76
2023-09-09T22:22:45.674Z,11.68
2023-09-09T22:25:15.366Z,11.59
2023-09-09T22:27:45.292Z,11.49
2023-09-09T22:30:14.622Z,11.56
2023-09-09T22:32:43.244Z,11.45
2023-09-09T22:35:11.729Z,11.47
2023-09-09T22:37:40.774Z,11.51
2023-09-09T22:40:10.966Z,11.54
2023-09-09T22:42:39.704Z,11.50
2023-09-09T22:45:10.054Z,11.57
2023-09-09T22:47:39.256Z,11.68
2023-09-09T22:50:09.236Z,11.64
2023-09-09T22:52:37.887Z,11.61
2023-09-09T22:55:07.085Z,11.59
2023-09-09T22:57:35.865Z,11.59
2023-09-09T23:00:06.846Z,11.61
2023-09-09T23:02:36.897Z,11.52
2023-09-09T23:05:06.309Z,11.49
2023-09-09T23:07:49.824Z,11.38
2023-09-09T23:10:19.080Z,11.36
2023-09-09T23:12:47.727Z,11.45
2023-09-09T23:15:16.550Z,11.45
2023-09-09T23:17:46.425Z,11.65
2023-09-09T23:20:15.044Z,11.66
2023-09-09T23:22:45.666Z,11.62
2023-09-09T23:25:15.970Z,11.64
2023-09-09T23:27:44.782Z,11.62
2023-09-09T23:30:14.168Z,11.57
2023-09-09T23:32:43.011Z,11.50
2023-09-09T23:35:13.117Z,11.56
2023-09-09T23:37:41.949Z,11.51
2023-09-09T23:40:12.516Z,11.40
2023-09-09T23:42:41.269Z,11.36
2023-09-09T23:45:10.210Z,11.36
2023-09-09T23:47:38.866Z,11.34
2023-09-09T23:50:08.449Z,11.52
2023-09-09T23:52:38.492Z,11.55
2023-09-09T23:55:08.162Z,11.68
2023-09-09T23:57:36.940Z,11.56
